DLH3TW EDDK-EDDS
Flight info
| Callsign | DLH3TW |
|---|---|
| Flight time | 0h 59m |
| Altitude | 23000 |
| Route | KUMIK1R/31R KUMIK L603 BOMBI N850 KRH T128 BADSO BADSO2A |
| Aircraft | A320/M-SDE3FGHIRWY/LB1 |
Departure
| Time | 2026-05-04 19:26 |
|---|---|
| Airport | Cologne Bonn Airport (EDDK) |
Arrival
| Time | 2026-05-04 20:25 |
|---|---|
| Airport | Stuttgart Airport (EDDS) |
| Time | Latitude | Longitude | Altitude | Speed | Heading |
|---|---|---|---|---|---|
| 2026-05-04 18:53 | 50.88105 | 7.12093 | 232 ft | 0 kts | 216° |
| 2026-05-04 19:11 | 50.88113 | 7.12102 | 232 ft | 4 kts | 212° |
| 2026-05-04 19:11 | 50.88137 | 7.12121 | 234 ft | 4 kts | 193° |
| 2026-05-04 19:12 | 50.88162 | 7.12123 | 232 ft | 4 kts | 152° |
| 2026-05-04 19:12 | 50.88172 | 7.12112 | 235 ft | 0 kts | 126° |
| 2026-05-04 19:14 | 50.88168 | 7.12121 | 235 ft | 8 kts | 126° |
| 2026-05-04 19:15 | 50.88126 | 7.12212 | 234 ft | 11 kts | 126° |
| 2026-05-04 19:15 | 50.88098 | 7.12311 | 232 ft | 9 kts | 101° |
| 2026-05-04 19:15 | 50.88052 | 7.12418 | 232 ft | 13 kts | 131° |
| 2026-05-04 19:15 | 50.87981 | 7.12523 | 232 ft | 15 kts | 137° |
| 2026-05-04 19:16 | 50.87893 | 7.12612 | 232 ft | 16 kts | 181° |
| 2026-05-04 19:16 | 50.87787 | 7.12674 | 232 ft | 18 kts | 138° |
| 2026-05-04 19:16 | 50.87689 | 7.12815 | 232 ft | 23 kts | 137° |
| 2026-05-04 19:16 | 50.87560 | 7.13002 | 232 ft | 26 kts | 137° |
| 2026-05-04 19:17 | 50.87426 | 7.13195 | 232 ft | 27 kts | 137° |
| 2026-05-04 19:17 | 50.87284 | 7.13400 | 233 ft | 29 kts | 137° |
| 2026-05-04 19:17 | 50.87140 | 7.13608 | 238 ft | 27 kts | 137° |
| 2026-05-04 19:17 | 50.87003 | 7.13807 | 243 ft | 27 kts | 137° |
| 2026-05-04 19:18 | 50.86872 | 7.13997 | 255 ft | 24 kts | 137° |
| 2026-05-04 19:18 | 50.86743 | 7.14134 | 255 ft | 19 kts | 183° |
| 2026-05-04 19:18 | 50.86680 | 7.14215 | 259 ft | 12 kts | 136° |
| 2026-05-04 19:18 | 50.86564 | 7.14384 | 262 ft | 31 kts | 137° |
| 2026-05-04 19:19 | 50.86414 | 7.14600 | 271 ft | 28 kts | 137° |
| 2026-05-04 19:19 | 50.86266 | 7.14815 | 280 ft | 33 kts | 137° |
| 2026-05-04 19:19 | 50.86097 | 7.15059 | 287 ft | 32 kts | 137° |
| 2026-05-04 19:19 | 50.85935 | 7.15293 | 295 ft | 31 kts | 137° |
| 2026-05-04 19:20 | 50.85782 | 7.15514 | 298 ft | 29 kts | 137° |
| 2026-05-04 19:20 | 50.85636 | 7.15726 | 303 ft | 28 kts | 137° |
| 2026-05-04 19:20 | 50.85495 | 7.15929 | 308 ft | 27 kts | 137° |
| 2026-05-04 19:20 | 50.85367 | 7.16120 | 308 ft | 20 kts | 127° |
| 2026-05-04 19:21 | 50.85339 | 7.16334 | 308 ft | 21 kts | 76° |
| 2026-05-04 19:21 | 50.85402 | 7.16473 | 308 ft | 0 kts | 38° |
| 2026-05-04 19:21 | 50.85414 | 7.16485 | 308 ft | 7 kts | 32° |
| 2026-05-04 19:21 | 50.85471 | 7.16516 | 307 ft | 13 kts | 8° |
| 2026-05-04 19:22 | 50.85554 | 7.16496 | 308 ft | 13 kts | 337° |
| 2026-05-04 19:22 | 50.85636 | 7.16400 | 309 ft | 11 kts | 318° |
| 2026-05-04 19:22 | 50.85640 | 7.16395 | 309 ft | 0 kts | 318° |
| 2026-05-04 19:25 | 50.85674 | 7.16347 | 309 ft | 23 kts | 318° |
| 2026-05-04 19:25 | 50.85996 | 7.15878 | 298 ft | 99 kts | 317° |
| 2026-05-04 19:25 | 50.86646 | 7.14937 | 277 ft | 155 kts | 317° |
| 2026-05-04 19:25 | 50.87455 | 7.13771 | 845 ft | 157 kts | 318° |
| 2026-05-04 19:26 | 50.88263 | 7.12606 | 1570 ft | 159 kts | 317° |
| 2026-05-04 19:26 | 50.89164 | 7.11444 | 1949 ft | 179 kts | 333° |
| 2026-05-04 19:26 | 50.90449 | 7.11133 | 2230 ft | 202 kts | 11° |
| 2026-05-04 19:26 | 50.91748 | 7.12108 | 2681 ft | 212 kts | 31° |
| 2026-05-04 19:27 | 50.92992 | 7.13404 | 3240 ft | 217 kts | 41° |
| 2026-05-04 19:27 | 50.93957 | 7.15301 | 3645 ft | 230 kts | 64° |
| 2026-05-04 19:27 | 50.94692 | 7.17683 | 4053 ft | 252 kts | 65° |
| 2026-05-04 19:27 | 50.95500 | 7.20280 | 4603 ft | 271 kts | 65° |
| 2026-05-04 19:28 | 50.96355 | 7.23002 | 5448 ft | 279 kts | 66° |
| 2026-05-04 19:28 | 50.97224 | 7.25745 | 6318 ft | 285 kts | 66° |
| 2026-05-04 19:28 | 50.98127 | 7.28585 | 7180 ft | 291 kts | 66° |
| 2026-05-04 19:28 | 50.99043 | 7.31475 | 8070 ft | 295 kts | 66° |
| 2026-05-04 19:29 | 50.99975 | 7.34413 | 8956 ft | 300 kts | 66° |
| 2026-05-04 19:29 | 51.00891 | 7.37410 | 9817 ft | 303 kts | 71° |
| 2026-05-04 19:29 | 51.01451 | 7.40632 | 10559 ft | 306 kts | 85° |
| 2026-05-04 19:29 | 51.01531 | 7.44103 | 10855 ft | 324 kts | 99° |
| 2026-05-04 19:30 | 51.01037 | 7.47686 | 11106 ft | 343 kts | 111° |
| 2026-05-04 19:30 | 51.00295 | 7.51376 | 11559 ft | 356 kts | 111° |
| 2026-05-04 19:30 | 50.99542 | 7.55157 | 12224 ft | 362 kts | 111° |
| 2026-05-04 19:30 | 50.98785 | 7.58989 | 12915 ft | 368 kts | 110° |
| 2026-05-04 19:31 | 50.98028 | 7.62846 | 13606 ft | 373 kts | 110° |
| 2026-05-04 19:31 | 50.97257 | 7.66794 | 14279 ft | 377 kts | 110° |
| 2026-05-04 19:31 | 50.96316 | 7.70672 | 14901 ft | 377 kts | 122° |
| 2026-05-04 19:31 | 50.94761 | 7.73988 | 15513 ft | 376 kts | 134° |
| 2026-05-04 19:32 | 50.93016 | 7.77103 | 16163 ft | 379 kts | 135° |
| 2026-05-04 19:32 | 50.91247 | 7.80235 | 16790 ft | 383 kts | 135° |
| 2026-05-04 19:32 | 50.89457 | 7.83396 | 17416 ft | 387 kts | 135° |
| 2026-05-04 19:32 | 50.87653 | 7.86582 | 18028 ft | 390 kts | 135° |
| 2026-05-04 19:33 | 50.85836 | 7.89794 | 18566 ft | 394 kts | 135° |
| 2026-05-04 19:33 | 50.84024 | 7.92998 | 19068 ft | 397 kts | 135° |
| 2026-05-04 19:33 | 50.82174 | 7.96266 | 19588 ft | 400 kts | 135° |
| 2026-05-04 19:33 | 50.80306 | 7.99554 | 20100 ft | 404 kts | 135° |
| 2026-05-04 19:34 | 50.78420 | 8.02864 | 20615 ft | 407 kts | 135° |
| 2026-05-04 19:34 | 50.76522 | 8.06193 | 21115 ft | 410 kts | 135° |
| 2026-05-04 19:34 | 50.74609 | 8.09550 | 21613 ft | 413 kts | 135° |
| 2026-05-04 19:34 | 50.72681 | 8.12934 | 22098 ft | 415 kts | 135° |
| 2026-05-04 19:35 | 50.70746 | 8.16331 | 22590 ft | 418 kts | 135° |
| 2026-05-04 19:35 | 50.68792 | 8.19756 | 22929 ft | 421 kts | 135° |
| 2026-05-04 19:35 | 50.66817 | 8.23206 | 23000 ft | 429 kts | 135° |
| 2026-05-04 19:35 | 50.64792 | 8.26734 | 23001 ft | 438 kts | 135° |
| 2026-05-04 19:36 | 50.62771 | 8.30254 | 22998 ft | 440 kts | 135° |
| 2026-05-04 19:36 | 50.60718 | 8.33824 | 22994 ft | 440 kts | 135° |
| 2026-05-04 19:36 | 50.58658 | 8.37402 | 22993 ft | 440 kts | 135° |
| 2026-05-04 19:36 | 50.56606 | 8.40967 | 22980 ft | 440 kts | 135° |
| 2026-05-04 19:37 | 50.54552 | 8.44532 | 22992 ft | 439 kts | 135° |
| 2026-05-04 19:37 | 50.52500 | 8.48081 | 22991 ft | 439 kts | 135° |
| 2026-05-04 19:37 | 50.50442 | 8.51632 | 22990 ft | 439 kts | 135° |
| 2026-05-04 19:37 | 50.48382 | 8.55177 | 22991 ft | 439 kts | 136° |
| 2026-05-04 19:38 | 50.46223 | 8.58553 | 22988 ft | 436 kts | 143° |
| 2026-05-04 19:38 | 50.43810 | 8.61284 | 22989 ft | 432 kts | 152° |
| 2026-05-04 19:38 | 50.41136 | 8.63363 | 22989 ft | 428 kts | 161° |
| 2026-05-04 19:38 | 50.38316 | 8.64791 | 22986 ft | 426 kts | 166° |
| 2026-05-04 19:39 | 50.35474 | 8.66110 | 22980 ft | 426 kts | 166° |
| 2026-05-04 19:39 | 50.32636 | 8.67437 | 22977 ft | 426 kts | 166° |
| 2026-05-04 19:39 | 50.29803 | 8.68769 | 22970 ft | 426 kts | 166° |
| 2026-05-04 19:39 | 50.26970 | 8.70104 | 22971 ft | 426 kts | 166° |
| 2026-05-04 19:40 | 50.24129 | 8.71441 | 22971 ft | 426 kts | 166° |
| 2026-05-04 19:40 | 50.21294 | 8.72769 | 22971 ft | 425 kts | 166° |
| 2026-05-04 19:40 | 50.18461 | 8.74087 | 22970 ft | 425 kts | 166° |
| 2026-05-04 19:40 | 50.15661 | 8.75381 | 22969 ft | 425 kts | 166° |
| 2026-05-04 19:41 | 50.12822 | 8.76692 | 22967 ft | 425 kts | 166° |
| 2026-05-04 19:41 | 50.09987 | 8.78005 | 22966 ft | 425 kts | 166° |
| 2026-05-04 19:41 | 50.07109 | 8.78948 | 22959 ft | 422 kts | 175° |
| 2026-05-04 19:41 | 50.04188 | 8.79126 | 22962 ft | 419 kts | 185° |
| 2026-05-04 19:42 | 50.01307 | 8.78538 | 22963 ft | 417 kts | 193° |
| 2026-05-04 19:42 | 49.98477 | 8.77554 | 22963 ft | 417 kts | 194° |
| 2026-05-04 19:42 | 49.95648 | 8.76567 | 22964 ft | 417 kts | 194° |
| 2026-05-04 19:42 | 49.92820 | 8.75580 | 22964 ft | 417 kts | 194° |
| 2026-05-04 19:43 | 49.89995 | 8.74596 | 22973 ft | 417 kts | 194° |
| 2026-05-04 19:43 | 49.87203 | 8.73628 | 22973 ft | 417 kts | 194° |
| 2026-05-04 19:43 | 49.84375 | 8.72652 | 22973 ft | 416 kts | 194° |
| 2026-05-04 19:43 | 49.81548 | 8.71683 | 22974 ft | 416 kts | 194° |
| 2026-05-04 19:44 | 49.78724 | 8.70719 | 22976 ft | 416 kts | 194° |
| 2026-05-04 19:44 | 49.75900 | 8.69755 | 22972 ft | 414 kts | 194° |
| 2026-05-04 19:44 | 49.73083 | 8.68933 | 22722 ft | 412 kts | 188° |
| 2026-05-04 19:44 | 49.70239 | 8.68928 | 22462 ft | 413 kts | 174° |
| 2026-05-04 19:45 | 49.67465 | 8.70112 | 22197 ft | 417 kts | 159° |
| 2026-05-04 19:45 | 49.64881 | 8.72169 | 21932 ft | 418 kts | 155° |
| 2026-05-04 19:45 | 49.62340 | 8.74308 | 21530 ft | 413 kts | 154° |
| 2026-05-04 19:45 | 49.59872 | 8.76421 | 20862 ft | 410 kts | 154° |
| 2026-05-04 19:46 | 49.57398 | 8.78558 | 20175 ft | 404 kts | 153° |
| 2026-05-04 19:46 | 49.54971 | 8.80653 | 19085 ft | 398 kts | 153° |
| 2026-05-04 19:46 | 49.52556 | 8.82726 | 18217 ft | 398 kts | 153° |
| 2026-05-04 19:46 | 49.50142 | 8.84784 | 17577 ft | 395 kts | 153° |
| 2026-05-04 19:47 | 49.47747 | 8.86820 | 16960 ft | 391 kts | 153° |
| 2026-05-04 19:47 | 49.45376 | 8.88830 | 16342 ft | 388 kts | 153° |
| 2026-05-04 19:47 | 49.43022 | 8.90817 | 15760 ft | 384 kts | 153° |
| 2026-05-04 19:47 | 49.40692 | 8.92777 | 15185 ft | 381 kts | 153° |
| 2026-05-04 19:48 | 49.38374 | 8.94726 | 14619 ft | 378 kts | 153° |
| 2026-05-04 19:48 | 49.36113 | 8.96631 | 14108 ft | 374 kts | 153° |
| 2026-05-04 19:48 | 49.33840 | 8.98548 | 13546 ft | 371 kts | 153° |
| 2026-05-04 19:48 | 49.31589 | 9.00444 | 12962 ft | 368 kts | 153° |
| 2026-05-04 19:49 | 49.29357 | 9.02321 | 12388 ft | 364 kts | 153° |
| 2026-05-04 19:49 | 49.27157 | 9.04169 | 11688 ft | 356 kts | 153° |
| 2026-05-04 19:49 | 49.25002 | 9.05981 | 10679 ft | 352 kts | 153° |
| 2026-05-04 19:49 | 49.22860 | 9.07778 | 10228 ft | 351 kts | 153° |
| 2026-05-04 19:50 | 49.20717 | 9.09572 | 10053 ft | 351 kts | 153° |
| 2026-05-04 19:50 | 49.18612 | 9.11332 | 9949 ft | 329 kts | 153° |
| 2026-05-04 19:50 | 49.16717 | 9.12925 | 9973 ft | 296 kts | 153° |
| 2026-05-04 19:50 | 49.14992 | 9.14372 | 9976 ft | 281 kts | 154° |
| 2026-05-04 19:51 | 49.13287 | 9.15792 | 9979 ft | 278 kts | 154° |
| 2026-05-04 19:51 | 49.11595 | 9.17198 | 9980 ft | 277 kts | 153° |
| 2026-05-04 19:51 | 49.10103 | 9.19055 | 9982 ft | 282 kts | 130° |
| 2026-05-04 19:51 | 49.09023 | 9.21563 | 9981 ft | 284 kts | 124° |
| 2026-05-04 19:52 | 49.08012 | 9.24155 | 9983 ft | 284 kts | 124° |
| 2026-05-04 19:52 | 49.07005 | 9.26754 | 9983 ft | 284 kts | 124° |
| 2026-05-04 19:52 | 49.06000 | 9.29348 | 9975 ft | 284 kts | 124° |
| 2026-05-04 19:52 | 49.04984 | 9.31941 | 9980 ft | 285 kts | 124° |
| 2026-05-04 19:53 | 49.03977 | 9.34494 | 9978 ft | 285 kts | 124° |
| 2026-05-04 19:53 | 49.02959 | 9.37077 | 9979 ft | 285 kts | 124° |
| 2026-05-04 19:53 | 49.01938 | 9.39664 | 9989 ft | 285 kts | 124° |
| 2026-05-04 19:53 | 49.00919 | 9.42245 | 9987 ft | 285 kts | 124° |
| 2026-05-04 19:54 | 48.99899 | 9.44832 | 9938 ft | 283 kts | 124° |
| 2026-05-04 19:54 | 48.98889 | 9.47395 | 9564 ft | 282 kts | 124° |
| 2026-05-04 19:54 | 48.97880 | 9.49945 | 9175 ft | 280 kts | 124° |
| 2026-05-04 19:54 | 48.96871 | 9.52472 | 8784 ft | 279 kts | 124° |
| 2026-05-04 19:55 | 48.95860 | 9.54987 | 8387 ft | 278 kts | 124° |
| 2026-05-04 19:55 | 48.94848 | 9.57483 | 8002 ft | 277 kts | 124° |
| 2026-05-04 19:55 | 48.93835 | 9.59955 | 7617 ft | 275 kts | 124° |
| 2026-05-04 19:55 | 48.92755 | 9.62334 | 7228 ft | 271 kts | 136° |
| 2026-05-04 19:56 | 48.91220 | 9.63838 | 6849 ft | 266 kts | 163° |
| 2026-05-04 19:56 | 48.89399 | 9.64060 | 6443 ft | 265 kts | 188° |
| 2026-05-04 19:56 | 48.87594 | 9.63464 | 5976 ft | 266 kts | 193° |
| 2026-05-04 19:56 | 48.85802 | 9.62757 | 5535 ft | 266 kts | 194° |
| 2026-05-04 19:57 | 48.84014 | 9.62024 | 5107 ft | 266 kts | 194° |
| 2026-05-04 19:57 | 48.82223 | 9.61287 | 4639 ft | 267 kts | 194° |
| 2026-05-04 19:57 | 48.80426 | 9.60561 | 4174 ft | 268 kts | 194° |
| 2026-05-04 19:57 | 48.78621 | 9.59847 | 4005 ft | 269 kts | 194° |
| 2026-05-04 19:58 | 48.76806 | 9.59141 | 4013 ft | 270 kts | 194° |
| 2026-05-04 19:58 | 48.74986 | 9.58372 | 4013 ft | 272 kts | 195° |
| 2026-05-04 19:58 | 48.73183 | 9.57647 | 4019 ft | 271 kts | 194° |
| 2026-05-04 19:58 | 48.71357 | 9.56933 | 4019 ft | 271 kts | 195° |
| 2026-05-04 19:59 | 48.69673 | 9.55695 | 4005 ft | 270 kts | 220° |
| 2026-05-04 19:59 | 48.68573 | 9.53435 | 4021 ft | 269 kts | 249° |
| 2026-05-04 19:59 | 48.68359 | 9.50680 | 4015 ft | 265 kts | 281° |
| 2026-05-04 19:59 | 48.68776 | 9.47956 | 3986 ft | 267 kts | 285° |
| 2026-05-04 20:00 | 48.69227 | 9.45248 | 3746 ft | 265 kts | 285° |
| 2026-05-04 20:00 | 48.69678 | 9.42554 | 3457 ft | 262 kts | 285° |
| 2026-05-04 20:00 | 48.70123 | 9.39884 | 3161 ft | 261 kts | 285° |
| 2026-05-04 20:00 | 48.70416 | 9.38125 | 2948 ft | 258 kts | 285° |
| 2026-05-04 20:01 | 48.70846 | 9.35528 | 2660 ft | 251 kts | 285° |
| 2026-05-04 20:01 | 48.70984 | 9.32948 | 2471 ft | 244 kts | 264° |
| 2026-05-04 20:01 | 48.70332 | 9.29832 | 1850 ft | 224 kts | 250° |
| 2026-05-04 20:01 | 48.69971 | 9.27692 | 1827 ft | 202 kts | 259° |
| 2026-05-04 20:02 | 48.69635 | 9.25660 | 1877 ft | 198 kts | 255° |
| 2026-05-04 20:02 | 48.69375 | 9.24368 | 2006 ft | 186 kts | 255° |
| 2026-05-04 20:02 | 48.69030 | 9.22675 | 2141 ft | 171 kts | 255° |
| 2026-05-04 20:02 | 48.68694 | 9.21019 | 2172 ft | 162 kts | 256° |
| 2026-05-04 20:03 | 48.68400 | 9.19433 | 2194 ft | 157 kts | 258° |
| 2026-05-04 20:03 | 48.68114 | 9.17892 | 2283 ft | 146 kts | 256° |
| 2026-05-04 20:03 | 48.67711 | 9.15971 | 2211 ft | 145 kts | 254° |
| 2026-05-04 20:03 | 48.67411 | 9.14521 | 2183 ft | 149 kts | 254° |
| 2026-05-04 20:04 | 48.67209 | 9.13528 | 2283 ft | 140 kts | 255° |
| 2026-05-04 20:04 | 48.66954 | 9.12253 | 2947 ft | 120 kts | 255° |
| 2026-05-04 20:04 | 48.66701 | 9.10931 | 3381 ft | 144 kts | 256° |
| 2026-05-04 20:04 | 48.66471 | 9.09567 | 4441 ft | 131 kts | 256° |
| 2026-05-04 20:05 | 48.66262 | 9.08133 | 5155 ft | 142 kts | 257° |
| 2026-05-04 20:05 | 48.66095 | 9.06748 | 5288 ft | 131 kts | 259° |
| 2026-05-04 20:05 | 48.65955 | 9.05290 | 5058 ft | 144 kts | 261° |
| 2026-05-04 20:05 | 48.65853 | 9.03818 | 5123 ft | 139 kts | 263° |
| 2026-05-04 20:06 | 48.65789 | 9.02357 | 5152 ft | 144 kts | 266° |
| 2026-05-04 20:06 | 48.65752 | 9.00685 | 5357 ft | 172 kts | 267° |
| 2026-05-04 20:06 | 48.65688 | 8.98770 | 5473 ft | 195 kts | 260° |
| 2026-05-04 20:06 | 48.65410 | 8.96647 | 5485 ft | 213 kts | 256° |
| 2026-05-04 20:07 | 48.65066 | 8.94437 | 5483 ft | 217 kts | 255° |
| 2026-05-04 20:07 | 48.64711 | 8.92209 | 5481 ft | 218 kts | 255° |
| 2026-05-04 20:07 | 48.64258 | 8.90032 | 5477 ft | 216 kts | 238° |
| 2026-05-04 20:07 | 48.63190 | 8.88509 | 5481 ft | 213 kts | 203° |
| 2026-05-04 20:08 | 48.61748 | 8.88212 | 5479 ft | 212 kts | 168° |
| 2026-05-04 20:08 | 48.60448 | 8.89257 | 5478 ft | 220 kts | 134° |
| 2026-05-04 20:08 | 48.59744 | 8.91287 | 5464 ft | 223 kts | 102° |
| 2026-05-04 20:08 | 48.59564 | 8.93604 | 5475 ft | 226 kts | 95° |
| 2026-05-04 20:09 | 48.59476 | 8.95971 | 5476 ft | 226 kts | 94° |
| 2026-05-04 20:09 | 48.59403 | 8.98344 | 5477 ft | 226 kts | 94° |
| 2026-05-04 20:09 | 48.59330 | 9.00717 | 5476 ft | 226 kts | 94° |
| 2026-05-04 20:09 | 48.59257 | 9.03088 | 5418 ft | 225 kts | 94° |
| 2026-05-04 20:10 | 48.59184 | 9.05436 | 5126 ft | 224 kts | 94° |
| 2026-05-04 20:10 | 48.59104 | 9.07780 | 4830 ft | 223 kts | 94° |
| 2026-05-04 20:10 | 48.59016 | 9.10110 | 4525 ft | 221 kts | 94° |
| 2026-05-04 20:10 | 48.58919 | 9.12422 | 4204 ft | 221 kts | 94° |
| 2026-05-04 20:11 | 48.58804 | 9.14730 | 4013 ft | 220 kts | 94° |
| 2026-05-04 20:11 | 48.58769 | 9.17004 | 3999 ft | 221 kts | 80° |
| 2026-05-04 20:11 | 48.59079 | 9.19273 | 4012 ft | 221 kts | 74° |
| 2026-05-04 20:11 | 48.59465 | 9.21525 | 4011 ft | 222 kts | 74° |
| 2026-05-04 20:12 | 48.59860 | 9.23776 | 4011 ft | 221 kts | 74° |
| 2026-05-04 20:12 | 48.60255 | 9.26021 | 4004 ft | 221 kts | 74° |
| 2026-05-04 20:12 | 48.60647 | 9.28263 | 4009 ft | 221 kts | 74° |
| 2026-05-04 20:12 | 48.61044 | 9.30511 | 4001 ft | 221 kts | 73° |
| 2026-05-04 20:13 | 48.61440 | 9.32759 | 4010 ft | 221 kts | 74° |
| 2026-05-04 20:13 | 48.61835 | 9.35009 | 4014 ft | 221 kts | 74° |
| 2026-05-04 20:13 | 48.62224 | 9.37224 | 4002 ft | 221 kts | 74° |
| 2026-05-04 20:13 | 48.62631 | 9.39528 | 4015 ft | 230 kts | 73° |
| 2026-05-04 20:14 | 48.63046 | 9.41879 | 4012 ft | 232 kts | 74° |
| 2026-05-04 20:14 | 48.63462 | 9.44239 | 4015 ft | 233 kts | 74° |
| 2026-05-04 20:14 | 48.63880 | 9.46604 | 4007 ft | 233 kts | 74° |
| 2026-05-04 20:14 | 48.64297 | 9.48967 | 4007 ft | 233 kts | 74° |
| 2026-05-04 20:15 | 48.64712 | 9.51334 | 4019 ft | 233 kts | 74° |
| 2026-05-04 20:15 | 48.65126 | 9.53700 | 4022 ft | 233 kts | 74° |
| 2026-05-04 20:15 | 48.65535 | 9.56033 | 4011 ft | 233 kts | 74° |
| 2026-05-04 20:15 | 48.65951 | 9.58397 | 4021 ft | 233 kts | 74° |
| 2026-05-04 20:16 | 48.66366 | 9.60760 | 4012 ft | 233 kts | 74° |
| 2026-05-04 20:16 | 48.66780 | 9.63142 | 4014 ft | 234 kts | 74° |
| 2026-05-04 20:16 | 48.67195 | 9.65523 | 4004 ft | 234 kts | 74° |
| 2026-05-04 20:16 | 48.67605 | 9.67898 | 4016 ft | 233 kts | 73° |
| 2026-05-04 20:17 | 48.68317 | 9.70055 | 4010 ft | 230 kts | 45° |
| 2026-05-04 20:17 | 48.69662 | 9.71287 | 4017 ft | 229 kts | 13° |
| 2026-05-04 20:17 | 48.71228 | 9.71203 | 4008 ft | 229 kts | 340° |
| 2026-05-04 20:17 | 48.72513 | 9.69819 | 4008 ft | 231 kts | 307° |
| 2026-05-04 20:18 | 48.73177 | 9.67640 | 4021 ft | 234 kts | 288° |
| 2026-05-04 20:18 | 48.73608 | 9.65262 | 4021 ft | 235 kts | 285° |
| 2026-05-04 20:18 | 48.74002 | 9.62867 | 4012 ft | 234 kts | 284° |
| 2026-05-04 20:18 | 48.74311 | 9.60451 | 4016 ft | 234 kts | 281° |
| 2026-05-04 20:19 | 48.74595 | 9.58064 | 4018 ft | 227 kts | 281° |
| 2026-05-04 20:19 | 48.74872 | 9.55723 | 4011 ft | 225 kts | 281° |
| 2026-05-04 20:19 | 48.74853 | 9.53394 | 4014 ft | 218 kts | 256° |
| 2026-05-04 20:19 | 48.74455 | 9.51284 | 4034 ft | 198 kts | 254° |
| 2026-05-04 20:20 | 48.74092 | 9.49367 | 4012 ft | 180 kts | 255° |
| 2026-05-04 20:20 | 48.73768 | 9.47639 | 4003 ft | 166 kts | 255° |
| 2026-05-04 20:20 | 48.73464 | 9.46012 | 3995 ft | 158 kts | 255° |
| 2026-05-04 20:20 | 48.73167 | 9.44420 | 3850 ft | 156 kts | 256° |
| 2026-05-04 20:21 | 48.72872 | 9.42846 | 3675 ft | 154 kts | 257° |
| 2026-05-04 20:21 | 48.72579 | 9.41279 | 3476 ft | 154 kts | 256° |
| 2026-05-04 20:21 | 48.72002 | 9.38203 | 3085 ft | 151 kts | 257° |
| 2026-05-04 20:22 | 48.71717 | 9.36682 | 2873 ft | 149 kts | 257° |
| 2026-05-04 20:22 | 48.71438 | 9.35195 | 2687 ft | 147 kts | 257° |
| 2026-05-04 20:22 | 48.71161 | 9.33725 | 2485 ft | 144 kts | 258° |
| 2026-05-04 20:22 | 48.70890 | 9.32282 | 2301 ft | 142 kts | 257° |
| 2026-05-04 20:23 | 48.70621 | 9.30855 | 2104 ft | 140 kts | 256° |
| 2026-05-04 20:23 | 48.70354 | 9.29440 | 1903 ft | 139 kts | 256° |
| 2026-05-04 20:23 | 48.70089 | 9.28033 | 1726 ft | 139 kts | 255° |
| 2026-05-04 20:23 | 48.69826 | 9.26636 | 1535 ft | 137 kts | 255° |
| 2026-05-04 20:24 | 48.69564 | 9.25248 | 1362 ft | 137 kts | 255° |
| 2026-05-04 20:24 | 48.69306 | 9.23886 | 1201 ft | 134 kts | 254° |
| 2026-05-04 20:24 | 48.69116 | 9.22880 | 1219 ft | 59 kts | 253° |
| 2026-05-04 20:24 | 48.69007 | 9.22304 | 1233 ft | 58 kts | 254° |
| 2026-05-04 20:25 | 48.68904 | 9.21760 | 1253 ft | 51 kts | 254° |
| 2026-05-04 20:25 | 48.68812 | 9.21282 | 1262 ft | 45 kts | 254° |
| 2026-05-04 20:25 | 48.68731 | 9.20856 | 1270 ft | 40 kts | 254° |
| 2026-05-04 20:25 | 48.68679 | 9.20512 | 1273 ft | 28 kts | 265° |
| 2026-05-04 20:26 | 48.68694 | 9.20260 | 1279 ft | 23 kts | 281° |
| 2026-05-04 20:26 | 48.68721 | 9.20088 | 1288 ft | 13 kts | 291° |
| 2026-05-04 20:26 | 48.68766 | 9.19991 | 1292 ft | 10 kts | 311° |
| 2026-05-04 20:26 | 48.68808 | 9.19925 | 1296 ft | 7 kts | 320° |
| 2026-05-04 20:27 | 48.68836 | 9.19901 | 1299 ft | 2 kts | 336° |
| 2026-05-04 20:27 | 48.68861 | 9.19887 | 1300 ft | 6 kts | 339° |
| 2026-05-04 20:27 | 48.68887 | 9.19815 | 1304 ft | 15 kts | 253° |
| 2026-05-04 20:27 | 48.68860 | 9.19665 | 1308 ft | 14 kts | 256° |
| 2026-05-04 20:28 | 48.68832 | 9.19519 | 1311 ft | 15 kts | 253° |
| 2026-05-04 20:28 | 48.68808 | 9.19396 | 1313 ft | 8 kts | 255° |
| 2026-05-04 20:28 | 48.68802 | 9.19329 | 1314 ft | 4 kts | 292° |
| 2026-05-04 20:28 | 48.68816 | 9.19314 | 1315 ft | 3 kts | 331° |
| 2026-05-04 20:29 | 48.68850 | 9.19296 | 1315 ft | 3 kts | 346° |
| 2026-05-04 20:29 | 48.68867 | 9.19290 | 1316 ft | 2 kts | 345° |
| 2026-05-04 20:29 | 48.68868 | 9.19289 | 1316 ft | 0 kts | 345° |